Darstellungsparameter: Aktuell verwendete Einstellungen:
Skalierung der Graphiken ... ?
xyx+y,   Skalierungsfaktor:      Skalierung: Modus: x, Faktor: 1
Darstellungszeitraum ... ?
Vom - - bis: - -   Zeitraum: 27.03.2011 - 28.03.2011
Min/Max/Avg-Anzeige ... ?
Zeige MMA aktuell
Zeige MMA Monat
Zeige MMA alles
Zeige --A aktuell
Zeige --A Monat
Zeige --A alles
Keine MMA-Anzeige
MMA:
Average (ber die Originaldaten)
MMA-Basis: 23.02.2003 - 29.09.2020
Quicknavigation für Darstellung... ?
Tage:      1T, 2T, 3T, 5T -1T -2T -3T -5T +1T +2T +3T +5T
Wochen: 1W, 2W, 3W -1W -2W -3W +1W +2W +3W
Monate: 1M, 3M, 6M -1M -3M -6M +1M +3M +6M
Jahre:    1J, 3J, 5J, 10J -1J -3J -5J -10J +1J +3J +5J +10J
Nutze für die Darstellung ... ?
Originaldaten oder Mittelwerte auf ...
Stundenbasis Tagesbasis Wochenbasis
Monatsbasis Jahresbasis      Datenbasis: Original-Daten
Darstellen als:
Statistik (Auto) Statistik J:M      Darstellung:
Zur Graphik,    zurück zur Übersicht aller Sensoren.
 
Tabellarische Datenbersicht: ?
 
Sensor: Nr:Datum:Temp:Abs-Feuchte:Windchill:Wind:
Aussen-T/F 1 27-03-2011 00:02:03 5 C 4.89 g/m*3 5 C 0 km/h
2 27-03-2011 00:14:03 5.1 C 4.92 g/m*3 5.1 C 0 km/h
3 27-03-2011 00:26:03 5.1 C 4.92 g/m*3 5.1 C 0 km/h
4 27-03-2011 00:38:03 5.1 C 4.92 g/m*3 5.1 C 0 km/h
5 27-03-2011 00:50:03 5 C 4.89 g/m*3 5 C 0 km/h
6 27-03-2011 01:02:03 4.8 C 4.9 g/m*3 4.8 C 0 km/h
7 27-03-2011 01:14:03 4.8 C 4.9 g/m*3 4.8 C 0 km/h
8 27-03-2011 01:26:03 4.8 C 4.96 g/m*3 4.8 C 0 km/h
9 27-03-2011 01:38:03 5.2 C 4.96 g/m*3 5.2 C 0 km/h
10 27-03-2011 01:50:03 5.3 C 4.99 g/m*3 5.3 C 0 km/h
11 27-03-2011 02:02:03 5.2 C 4.89 g/m*3 5.2 C 0 km/h
12 27-03-2011 02:14:03 4.6 C 4.76 g/m*3 4.6 C 0 km/h
13 27-03-2011 02:26:03 4.5 C 4.86 g/m*3 4.5 C 0 km/h
14 27-03-2011 02:38:03 4.7 C 4.93 g/m*3 4.7 C 0 km/h
15 27-03-2011 02:50:03 5.1 C 4.92 g/m*3 5.1 C 0 km/h
16 27-03-2011 04:02:03 5 C 4.82 g/m*3 5 C 0 km/h
17 27-03-2011 04:14:04 5 C 4.82 g/m*3 5 C 0 km/h
18 27-03-2011 04:26:04 5 C 4.82 g/m*3 5 C 0 km/h
19 27-03-2011 04:38:04 4.8 C 4.83 g/m*3 4.8 C 0 km/h
20 27-03-2011 04:50:04 4.6 C 4.76 g/m*3 4.6 C 0 km/h
21 27-03-2011 05:02:04 4.5 C 4.8 g/m*3 4.5 C 0 km/h
22 27-03-2011 05:14:04 4.7 C 4.86 g/m*3 4.7 C 0 km/h
23 27-03-2011 05:26:04 4.8 C 4.9 g/m*3 4.8 C 0 km/h
24 27-03-2011 05:38:04 4.8 C 4.9 g/m*3 4.8 C 0 km/h
25 27-03-2011 05:50:04 4.6 C 4.83 g/m*3 4.6 C 0 km/h
Sensor: Nr:Datum:Temp:Abs-Feuchte:Windchill:Wind:
Aussen-T/F 26 27-03-2011 06:02:04 4.4 C 4.7 g/m*3 4.4 C 0 km/h
27 27-03-2011 06:14:04 4.4 C 4.77 g/m*3 4.4 C 0 km/h
28 27-03-2011 06:26:04 4.4 C 4.77 g/m*3 4.4 C 0 km/h
29 27-03-2011 06:38:04 4.4 C 4.77 g/m*3 4.4 C 0 km/h
30 27-03-2011 06:50:04 4.4 C 4.77 g/m*3 4.4 C 0 km/h
31 27-03-2011 07:02:04 4.4 C 4.77 g/m*3 4.4 C 0 km/h
32 27-03-2011 07:14:04 4 C 4.64 g/m*3 4 C 0 km/h
33 27-03-2011 07:26:04 4.2 C 4.77 g/m*3 4.2 C 0 km/h
34 27-03-2011 07:38:04 4.6 C 4.83 g/m*3 4.6 C 0 km/h
35 27-03-2011 07:50:04 4.8 C 4.9 g/m*3 4.8 C 0 km/h
36 27-03-2011 08:02:04 5.1 C 4.86 g/m*3 5.1 C 0 km/h
37 27-03-2011 08:14:05 5.2 C 4.82 g/m*3 5.2 C 0 km/h
38 27-03-2011 08:26:05 5.5 C 4.85 g/m*3 5.5 C 0 km/h
39 27-03-2011 08:38:05 5.9 C 4.76 g/m*3 5.9 C 0 km/h
40 27-03-2011 08:50:02 6.1 C 4.6 g/m*3 6.1 C 0 km/h
41 27-03-2011 09:02:01 6.5 C 4.65 g/m*3 6.5 C 0 km/h
42 27-03-2011 09:14:01 6.9 C 4.7 g/m*3 6.9 C 0 km/h
43 27-03-2011 09:26:02 7.2 C 4.55 g/m*3 7.2 C 0 km/h
44 27-03-2011 09:38:02 7.3 C 4.58 g/m*3 7.3 C 0 km/h
45 27-03-2011 09:50:02 7.9 C 4.6 g/m*3 7.9 C 0 km/h
46 27-03-2011 10:02:03 8 C 4.55 g/m*3 8 C 0 km/h
47 27-03-2011 10:14:03 8.2 C 4.35 g/m*3 8.2 C 0 km/h
48 27-03-2011 10:26:03 8 C 4.46 g/m*3 8 C 0 km/h
49 27-03-2011 10:38:03 8.8 C 4.53 g/m*3 8.8 C 0 km/h
50 27-03-2011 10:50:01 8.7 C 4.5 g/m*3 8.7 C 0 km/h
Sensor: Nr:Datum:Temp:Abs-Feuchte:Windchill:Wind:
Aussen-T/F 51 27-03-2011 11:02:02 9.4 C 4.52 g/m*3 9.4 C 0 km/h
52 27-03-2011 11:14:02 10.1 C 4.44 g/m*3 10.1 C 0 km/h
53 27-03-2011 11:26:01 10.3 C 4.41 g/m*3 10.3 C 0 km/h
54 27-03-2011 11:38:01 10.3 C 4.41 g/m*3 10.3 C 0 km/h
55 27-03-2011 11:50:01 10 C 4.32 g/m*3 10 C 0 km/h
56 27-03-2011 12:02:02 10.9 C 4.48 g/m*3 10.9 C 0 km/h
57 27-03-2011 12:14:03 11.2 C 4.26 g/m*3 11.2 C 0 km/h
58 27-03-2011 12:26:01 11.7 C 4.5 g/m*3 11.7 C 0 km/h
59 27-03-2011 12:38:02 11.2 C 4.26 g/m*3 11.2 C 0 km/h
60 27-03-2011 12:50:01 11.6 C 4.47 g/m*3 11.6 C 0 km/h
61 27-03-2011 13:02:02 12.1 C 4.5 g/m*3 12.1 C 0 km/h
62 27-03-2011 13:14:02 12.6 C 4.54 g/m*3 12.6 C 0 km/h
63 27-03-2011 13:26:02 13.7 C 4.5 g/m*3 13.7 C 0 km/h
64 27-03-2011 13:38:02 14.6 C 4.63 g/m*3 14.6 C 0 km/h
65 27-03-2011 13:50:02 17.5 C 4.62 g/m*3 17.5 C 0 km/h
66 27-03-2011 14:02:02 16.2 C 4.14 g/m*3 16.2 C 0 km/h
67 27-03-2011 14:14:02 16 C 4.36 g/m*3 16 C 0 km/h
68 27-03-2011 14:26:02 15.4 C 4.07 g/m*3 15.4 C 0 km/h
69 27-03-2011 14:38:01 15.8 C 4.17 g/m*3 15.8 C 0 km/h
70 27-03-2011 14:50:02 15.9 C 4.06 g/m*3 15.9 C 0 km/h
71 27-03-2011 15:02:01 17.7 C 3.92 g/m*3 17.7 C 0 km/h
72 27-03-2011 15:14:01 17.8 C 3.95 g/m*3 17.8 C 0 km/h
73 27-03-2011 15:26:02 18.5 C 3.96 g/m*3 18.5 C 0 km/h
74 27-03-2011 15:38:01 20.3 C 3.52 g/m*3 20.3 C 0 km/h
75 27-03-2011 15:50:02 20 C 3.46 g/m*3 20 C 0 km/h
Sensor: Nr:Datum:Temp:Abs-Feuchte:Windchill:Wind:
Aussen-T/F 76 27-03-2011 16:02:02 20.4 C 3.54 g/m*3 20.4 C 0 km/h
77 27-03-2011 16:14:02 17.9 C 3.05 g/m*3 17.9 C 0 km/h
78 27-03-2011 16:26:02 20.4 C 3.54 g/m*3 20.4 C 0 km/h
79 27-03-2011 16:38:03 21.1 C 3.69 g/m*3 21.1 C 0 km/h
80 27-03-2011 16:50:02 20 C 3.46 g/m*3 20 C 0 km/h
81 27-03-2011 17:02:02 19.8 C 3.42 g/m*3 19.8 C 0 km/h
82 27-03-2011 17:14:02 19.7 C 3.4 g/m*3 19.7 C 0 km/h
83 27-03-2011 17:26:02 18.3 C 3.13 g/m*3 18.3 C 0 km/h
84 27-03-2011 17:38:02 16 C 3.68 g/m*3 16 C 0 km/h
85 27-03-2011 17:50:02 15.2 C 3.76 g/m*3 15.2 C 0 km/h
86 27-03-2011 18:02:02 14.8 C 4.05 g/m*3 14.8 C 0 km/h
87 27-03-2011 18:14:02 15.4 C 3.94 g/m*3 15.4 C 0 km/h
88 27-03-2011 18:26:02 15.2 C 4.02 g/m*3 15.2 C 0 km/h
89 27-03-2011 18:38:02 15.8 C 4.04 g/m*3 15.8 C 0 km/h
90 27-03-2011 18:50:01 16.1 C 3.84 g/m*3 16.1 C 0 km/h
91 27-03-2011 19:02:02 15.4 C 4.07 g/m*3 15.4 C 0 km/h
92 27-03-2011 19:14:02 12.7 C 4.79 g/m*3 12.7 C 0 km/h
93 27-03-2011 19:26:01 11.4 C 4.82 g/m*3 11.4 C 0 km/h
94 27-03-2011 19:38:02 11.3 C 4.79 g/m*3 11.3 C 0 km/h
95 27-03-2011 19:50:02 11 C 4.7 g/m*3 11 C 0 km/h
96 27-03-2011 20:02:02 10.2 C 4.76 g/m*3 10.2 C 0 km/h
97 27-03-2011 20:14:02 9.3 C 4.67 g/m*3 9.3 C 0 km/h
98 27-03-2011 20:26:01 8.9 C 4.82 g/m*3 8.9 C 0 km/h
99 27-03-2011 20:38:02 8.4 C 4.75 g/m*3 8.4 C 0 km/h
100 27-03-2011 20:50:02 8.5 C 5.04 g/m*3 8.5 C 0 km/h
Sensor: Nr:Datum:Temp:Abs-Feuchte:Windchill:Wind:
Aussen-T/F 101 27-03-2011 21:02:02 8.2 C 5.02 g/m*3 8.2 C 0 km/h
102 27-03-2011 21:14:03 7.7 C 4.87 g/m*3 7.7 C 0 km/h
103 27-03-2011 21:26:02 8.3 C 5.06 g/m*3 8.3 C 0 km/h
104 27-03-2011 21:38:02 7.5 C 4.88 g/m*3 7.5 C 0 km/h
105 27-03-2011 21:50:02 7.2 C 4.95 g/m*3 7.2 C 0 km/h
106 27-03-2011 22:03:04 7.6 C 5.16 g/m*3 7.6 C 0 km/h
107 27-03-2011 22:15:04 7.8 C 5.22 g/m*3 7.8 C 0 km/h
108 27-03-2011 22:27:04 7.8 C 4.98 g/m*3 7.8 C 0 km/h
109 27-03-2011 22:39:04 8 C 4.8 g/m*3 8 C 0 km/h
110 27-03-2011 22:51:04 7.5 C 4.8 g/m*3 7.5 C 0 km/h
111 27-03-2011 23:03:04 7 C 5.04 g/m*3 7 C 0 km/h
112 27-03-2011 23:15:04 7.3 C 5.14 g/m*3 7.3 C 0 km/h
113 27-03-2011 23:27:04 7 C 5.19 g/m*3 7 C 0 km/h
114 27-03-2011 23:39:04 6.1 C 4.97 g/m*3 6.1 C 0 km/h
115 27-03-2011 23:51:04 6.1 C 5.19 g/m*3 6.1 C 0 km/h
116 28-03-2011 00:03:04 6 C 5.15 g/m*3 6 C 0 km/h
117 28-03-2011 00:15:04 5.6 C 5.02 g/m*3 5.6 C 0 km/h
118 28-03-2011 00:27:04 5.4 C 5.16 g/m*3 5.4 C 0 km/h
119 28-03-2011 00:39:04 5.4 C 5.23 g/m*3 5.4 C 0 km/h
120 28-03-2011 00:51:05 4.9 C 5.06 g/m*3 4.9 C 0 km/h
121 28-03-2011 01:03:05 4.3 C 4.86 g/m*3 4.3 C 0 km/h
122 28-03-2011 01:15:05 4 C 4.9 g/m*3 4 C 0 km/h
123 28-03-2011 01:27:05 4 C 5.02 g/m*3 4 C 0 km/h
124 28-03-2011 01:39:05 4.2 C 5.22 g/m*3 4.2 C 0 km/h
125 28-03-2011 01:51:05 3.5 C 4.98 g/m*3 3.5 C 0 km/h
Sensor: Nr:Datum:Temp:Abs-Feuchte:Windchill:Wind:
Aussen-T/F 126 28-03-2011 02:03:05 3.2 C 4.94 g/m*3 3.2 C 0 km/h
127 28-03-2011 02:15:05 2.8 C 4.87 g/m*3 2.8 C 0 km/h
128 28-03-2011 02:27:05 2.9 C 4.96 g/m*3 2.9 C 0 km/h
129 28-03-2011 02:39:05 2.6 C 4.86 g/m*3 2.6 C 0 km/h
130 28-03-2011 02:51:05 2.5 C 4.83 g/m*3 2.5 C 0 km/h
131 28-03-2011 03:03:05 2.3 C 4.82 g/m*3 2.3 C 0 km/h
132 28-03-2011 03:15:05 2.3 C 4.82 g/m*3 2.3 C 0 km/h
133 28-03-2011 03:27:05 2.1 C 4.81 g/m*3 2.1 C 0 km/h
134 28-03-2011 03:39:05 2.1 C 4.81 g/m*3 2.1 C 0 km/h
135 28-03-2011 03:51:05 1.9 C 4.8 g/m*3 1.9 C 0 km/h
136 28-03-2011 04:03:05 2.8 C 5.16 g/m*3 2.8 C 0 km/h
137 28-03-2011 04:15:05 3 C 5.23 g/m*3 3 C 0 km/h
138 28-03-2011 04:27:05 2.8 C 5.16 g/m*3 2.8 C 0 km/h
139 28-03-2011 04:39:05 2.5 C 5 g/m*3 2.5 C 0 km/h
140 28-03-2011 04:51:05 2.3 C 4.93 g/m*3 2.3 C 0 km/h
141 28-03-2011 05:03:06 2.2 C 4.9 g/m*3 2.2 C 0 km/h
142 28-03-2011 05:15:06 2.2 C 4.96 g/m*3 2.2 C 0 km/h
143 28-03-2011 05:27:06 1.9 C 4.86 g/m*3 1.9 C 0 km/h
144 28-03-2011 05:39:06 1.6 C 4.81 g/m*3 1.6 C 0 km/h
145 28-03-2011 05:51:06 1.3 C 4.72 g/m*3 1.3 C 0 km/h
146 28-03-2011 06:03:06 1.3 C 4.72 g/m*3 1.3 C 0 km/h
147 28-03-2011 06:15:06 1.1 C 4.65 g/m*3 1.1 C 0 km/h
148 28-03-2011 06:27:06 1.3 C 4.72 g/m*3 1.3 C 0 km/h
149 28-03-2011 06:39:06 1.1 C 4.65 g/m*3 1.1 C 0 km/h
150 28-03-2011 06:51:06 0.9 C 4.64 g/m*3 0.9 C 0 km/h
Sensor: Nr:Datum:Temp:Abs-Feuchte:Windchill:Wind:
Aussen-T/F 151 28-03-2011 07:03:03 0.8 C 4.61 g/m*3 0.8 C 0 km/h
152 28-03-2011 07:15:03 0.9 C 4.64 g/m*3 0.9 C 0 km/h
153 28-03-2011 07:27:03 0.7 C 4.63 g/m*3 0.7 C 0 km/h
154 28-03-2011 07:39:04 0.4 C 4.53 g/m*3 0.4 C 0 km/h
155 28-03-2011 07:51:02 0.3 C 4.5 g/m*3 0.3 C 0 km/h
156 28-03-2011 08:03:02 0.5 C 4.56 g/m*3 0.5 C 0 km/h
157 28-03-2011 08:15:02 0.8 C 4.66 g/m*3 0.8 C 0 km/h
158 28-03-2011 08:27:02 1.3 C 4.82 g/m*3 1.3 C 0 km/h
159 28-03-2011 08:39:02 1.2 C 4.79 g/m*3 1.2 C 0 km/h
160 28-03-2011 08:51:02 1.9 C 5.02 g/m*3 1.9 C 0 km/h
161 28-03-2011 09:03:02 1.9 C 5.02 g/m*3 1.9 C 0 km/h
162 28-03-2011 09:15:02 2.2 C 5.07 g/m*3 2.2 C 0 km/h
163 28-03-2011 09:27:02 2.4 C 5.14 g/m*3 2.4 C 0 km/h
164 28-03-2011 09:39:02 2.6 C 5.21 g/m*3 2.6 C 0 km/h
165 28-03-2011 09:51:02 3 C 5.29 g/m*3 3 C 0 km/h
166 28-03-2011 10:03:02 3.2 C 5.36 g/m*3 3.2 C 0 km/h
167 28-03-2011 10:15:02 4 C 5.59 g/m*3 4 C 0 km/h
168 28-03-2011 10:27:02 4.2 C 5.61 g/m*3 4.2 C 0 km/h
169 28-03-2011 10:39:02 5.3 C 5.54 g/m*3 5.3 C 0 km/h
170 28-03-2011 10:51:02 6.6 C 5.21 g/m*3 6.6 C 0 km/h
171 28-03-2011 11:03:02 7.3 C 4.82 g/m*3 7.3 C 0 km/h
172 28-03-2011 11:15:02 7.9 C 4.52 g/m*3 7.9 C 0 km/h
173 28-03-2011 11:27:03 8.5 C 4.44 g/m*3 8.5 C 0 km/h
174 28-03-2011 11:39:01 9.3 C 3.86 g/m*3 9.3 C 0 km/h
175 28-03-2011 11:51:02 10 C 3.95 g/m*3 10 C 0 km/h
Sensor: Nr:Datum:Temp:Abs-Feuchte:Windchill:Wind:
Aussen-T/F 176 28-03-2011 12:03:01 10.4 C 3.76 g/m*3 10.4 C 0 km/h
177 28-03-2011 12:15:01 11 C 3.4 g/m*3 11 C 0 km/h
178 28-03-2011 12:27:01 11 C 3.3 g/m*3 11 C 0 km/h
179 28-03-2011 12:39:02 11.8 C 3.47 g/m*3 11.8 C 0 km/h
180 28-03-2011 12:51:02 12.2 C 3.24 g/m*3 12.2 C 0 km/h
181 28-03-2011 13:03:02 12.4 C 3.17 g/m*3 12.4 C 0 km/h
182 28-03-2011 13:15:02 13.2 C 3.33 g/m*3 13.2 C 0 km/h
183 28-03-2011 13:27:02 13.7 C 2.96 g/m*3 13.7 C 0 km/h
184 28-03-2011 13:39:02 14 C 3.02 g/m*3 14 C 0 km/h
185 28-03-2011 13:51:01 16.1 C 2.74 g/m*3 16.1 C 0 km/h
186 28-03-2011 14:03:02 14.6 C 2.5 g/m*3 14.6 C 0 km/h
187 28-03-2011 14:15:01 14.9 C 2.55 g/m*3 14.9 C 0 km/h
188 28-03-2011 14:27:01 14.3 C 2.46 g/m*3 14.3 C 0 km/h
189 28-03-2011 14:39:01 14.1 C 2.43 g/m*3 14.1 C 0 km/h
190 28-03-2011 14:51:01 15 C 2.56 g/m*3 15 C 0 km/h
191 28-03-2011 15:03:02 16 C 2.72 g/m*3 16 C 0 km/h
192 28-03-2011 15:15:01 16.2 C 2.76 g/m*3 16.2 C 0 km/h
193 28-03-2011 15:27:01 16.6 C 2.83 g/m*3 16.6 C 0 km/h
194 28-03-2011 15:39:01 20.1 C 3.48 g/m*3 20.1 C 0 km/h
195 28-03-2011 15:51:01 17.2 C 2.93 g/m*3 17.2 C 0 km/h
196 28-03-2011 16:03:01 18.9 C 3.24 g/m*3 18.9 C 0 km/h
197 28-03-2011 16:15:02 19.4 C 3.34 g/m*3 19.4 C 0 km/h
198 28-03-2011 16:27:02 19.7 C 3.4 g/m*3 19.7 C 0 km/h
199 28-03-2011 16:39:01 18.3 C 3.13 g/m*3 18.3 C 0 km/h
200 28-03-2011 16:51:02 18.4 C 3.15 g/m*3 18.4 C 0 km/h
Sensor: Nr:Datum:Temp:Abs-Feuchte:Windchill:Wind:
Aussen-T/F 201 28-03-2011 17:03:01 16.9 C 2.88 g/m*3 16.9 C 0 km/h
202 28-03-2011 17:15:01 18.4 C 3.15 g/m*3 18.4 C 0 km/h
203 28-03-2011 17:27:01 19.2 C 3.3 g/m*3 19.2 C 0 km/h
204 28-03-2011 17:39:01 18.5 C 3.16 g/m*3 18.5 C 0 km/h
205 28-03-2011 17:51:02 16.7 C 2.84 g/m*3 16.7 C 0 km/h
206 28-03-2011 18:03:02 16.7 C 2.84 g/m*3 16.7 C 0 km/h
207 28-03-2011 18:15:02 17.1 C 2.91 g/m*3 17.1 C 0 km/h
208 28-03-2011 18:27:02 16.4 C 2.79 g/m*3 16.4 C 0 km/h
209 28-03-2011 18:39:02 15.5 C 2.64 g/m*3 15.5 C 0 km/h
210 28-03-2011 18:51:02 14.9 C 2.55 g/m*3 14.9 C 0 km/h
211 28-03-2011 19:03:02 14.6 C 2.5 g/m*3 14.6 C 0 km/h
212 28-03-2011 19:15:01 13.5 C 2.46 g/m*3 13.5 C 0 km/h
213 28-03-2011 19:27:01 12.8 C 2.8 g/m*3 12.8 C 0 km/h
214 28-03-2011 19:39:02 11.2 C 3.04 g/m*3 11.2 C 0 km/h
215 28-03-2011 19:51:02 9.8 C 3.34 g/m*3 9.8 C 0 km/h
216 28-03-2011 20:03:02 9.6 C 3.3 g/m*3 9.6 C 0 km/h
217 28-03-2011 20:15:02 9 C 3.26 g/m*3 9 C 0 km/h
218 28-03-2011 20:27:02 9.6 C 3.21 g/m*3 9.6 C 0 km/h
219 28-03-2011 20:39:02 9.5 C 3.09 g/m*3 9.5 C 0 km/h
220 28-03-2011 20:51:02 9.2 C 3.21 g/m*3 9.2 C 0 km/h
221 28-03-2011 21:03:02 7.8 C 3.51 g/m*3 7.8 C 0 km/h
222 28-03-2011 21:15:02 7.1 C 3.67 g/m*3 7.1 C 0 km/h
223 28-03-2011 21:27:02 6.9 C 3.77 g/m*3 6.9 C 0 km/h
224 28-03-2011 21:39:02 6.5 C 3.67 g/m*3 6.5 C 0 km/h
225 28-03-2011 21:51:02 6.2 C 3.75 g/m*3 6.2 C 0 km/h
Sensor: Nr:Datum:Temp:Abs-Feuchte:Windchill:Wind:
Aussen-T/F 226 28-03-2011 22:03:02 5.6 C 3.68 g/m*3 5.6 C 0 km/h
227 28-03-2011 22:15:02 5.8 C 3.72 g/m*3 5.8 C 0 km/h
228 28-03-2011 22:27:02 6.2 C 3.75 g/m*3 6.2 C 0 km/h
229 28-03-2011 22:39:02 5.6 C 3.82 g/m*3 5.6 C 0 km/h
230 28-03-2011 22:51:02 5.3 C 4.02 g/m*3 5.3 C 0 km/h
231 28-03-2011 23:03:01 4.7 C 3.93 g/m*3 4.7 C 0 km/h
232 28-03-2011 23:15:02 4.4 C 4.05 g/m*3 4.4 C 0 km/h
233 28-03-2011 23:27:02 3.3 C 3.88 g/m*3 3.3 C 0 km/h
234 28-03-2011 23:39:02 2.9 C 4.02 g/m*3 2.9 C 0 km/h
235 28-03-2011 23:51:02 2.3 C 3.91 g/m*3 2.3 C 0 km/h

Legende:
   Min
   Max


Maximal/Minimal-Werte vom 23.02.2003 - 29.09.2020

Sensor Min Max Avg
Temp
(Aussen-T/F)
-16.4 °C
20-12-2009  01:30:01
40.4 °C
25-07-2019  16:20:00
11.32 °C

Die Daten stammen von einer Davis Vantage Pro 2 Wetter-Station und werden unter Linux mit der Software wview2wettercgi und aufbereitet. Alle Angaben erfolgen ohne Gewähr für ihre Vollständigkeit oder Richtigkeit.
Kontakt: Rainer Krienke krienke@uni-koblenz.de . Meine Webseiten an der Uni Koblenz oder privat.
Version: $Revision: 0.78 $